sensor_id;sensor_type;location;lat;lon;timestamp;pressure;altitude;pressure_sealevel;temperature;humidity
52137;BME280;69622;49.570;10.986;2023-08-06T00:01:50;97620.13;;;15.90;100.00
52137;BME280;69622;49.570;10.986;2023-08-06T00:04:53;97624.88;;;15.54;100.00
52137;BME280;69622;49.570;10.986;2023-08-06T00:07:54;97629.16;;;15.55;100.00
52137;BME280;69622;49.570;10.986;2023-08-06T00:10:56;97618.00;;;15.37;100.00
52137;BME280;69622;49.570;10.986;2023-08-06T00:13:57;97624.69;;;15.23;100.00
52137;BME280;69622;49.570;10.986;2023-08-06T00:16:59;97616.03;;;15.22;100.00
52137;BME280;69622;49.570;10.986;2023-08-06T00:20:01;97615.19;;;15.30;100.00
52137;BME280;69622;49.570;10.986;2023-08-06T00:23:07;97608.31;;;15.13;100.00
52137;BME280;69622;49.570;10.986;2023-08-06T00:26:09;97605.50;;;14.98;100.00
52137;BME280;69622;49.570;10.986;2023-08-06T00:29:11;97599.63;;;14.96;100.00
52137;BME280;69622;49.570;10.986;2023-08-06T00:32:13;97598.31;;;14.92;100.00
52137;BME280;69622;49.570;10.986;2023-08-06T00:35:14;97584.44;;;15.00;100.00
52137;BME280;69622;49.570;10.986;2023-08-06T00:38:16;97589.47;;;14.85;100.00
52137;BME280;69622;49.570;10.986;2023-08-06T00:41:17;97574.53;;;14.69;100.00
52137;BME280;69622;49.570;10.986;2023-08-06T00:44:19;97581.84;;;14.57;100.00
52137;BME280;69622;49.570;10.986;2023-08-06T00:47:20;97572.91;;;14.76;100.00
52137;BME280;69622;49.570;10.986;2023-08-06T00:50:22;97567.34;;;14.79;100.00
52137;BME280;69622;49.570;10.986;2023-08-06T00:53:24;97560.50;;;14.86;100.00
52137;BME280;69622;49.570;10.986;2023-08-06T00:56:26;97553.81;;;14.92;100.00
52137;BME280;69622;49.570;10.986;2023-08-06T00:59:29;97557.91;;;14.86;100.00
52137;BME280;69622;49.570;10.986;2023-08-06T01:02:31;97568.47;;;14.60;100.00
52137;BME280;69622;49.570;10.986;2023-08-06T01:05:33;97568.63;;;14.67;100.00
52137;BME280;69622;49.570;10.986;2023-08-06T01:08:51;97580.59;;;14.70;100.00
52137;BME280;69622;49.570;10.986;2023-08-06T01:12:32;97582.19;;;14.62;100.00
52137;BME280;69622;49.570;10.986;2023-08-06T01:15:41;97581.53;;;14.52;100.00
52137;BME280;69622;49.570;10.986;2023-08-06T01:18:47;97587.41;;;14.54;100.00
52137;BME280;69622;49.570;10.986;2023-08-06T01:21:50;97572.59;;;14.79;100.00
52137;BME280;69622;49.570;10.986;2023-08-06T01:24:53;97581.06;;;14.65;100.00
52137;BME280;69622;49.570;10.986;2023-08-06T01:27:56;97576.63;;;14.65;100.00
52137;BME280;69622;49.570;10.986;2023-08-06T01:31:02;97570.47;;;14.75;100.00
52137;BME280;69622;49.570;10.986;2023-08-06T01:34:17;97559.69;;;14.86;100.00
52137;BME280;69622;49.570;10.986;2023-08-06T01:37:22;97556.59;;;14.90;100.00
52137;BME280;69622;49.570;10.986;2023-08-06T01:40:23;97556.06;;;14.79;100.00
52137;BME280;69622;49.570;10.986;2023-08-06T01:43:26;97560.13;;;14.65;100.00
52137;BME280;69622;49.570;10.986;2023-08-06T01:46:28;97547.75;;;14.83;100.00
52137;BME280;69622;49.570;10.986;2023-08-06T01:49:29;97539.88;;;14.75;100.00
52137;BME280;69622;49.570;10.986;2023-08-06T01:52:31;97521.72;;;14.74;100.00
52137;BME280;69622;49.570;10.986;2023-08-06T01:55:32;97534.16;;;14.72;100.00
52137;BME280;69622;49.570;10.986;2023-08-06T01:58:34;97535.59;;;14.66;100.00
52137;BME280;69622;49.570;10.986;2023-08-06T02:01:35;97535.59;;;14.58;100.00
52137;BME280;69622;49.570;10.986;2023-08-06T02:04:37;97538.91;;;14.68;100.00
52137;BME280;69622;49.570;10.986;2023-08-06T02:07:38;97547.31;;;14.46;100.00
52137;BME280;69622;49.570;10.986;2023-08-06T02:10:40;97548.13;;;14.46;100.00
52137;BME280;69622;49.570;10.986;2023-08-06T02:13:42;97537.06;;;14.52;100.00
52137;BME280;69622;49.570;10.986;2023-08-06T02:16:44;97529.81;;;14.46;100.00
52137;BME280;69622;49.570;10.986;2023-08-06T02:19:45;97527.88;;;14.48;100.00
52137;BME280;69622;49.570;10.986;2023-08-06T02:22:47;97526.84;;;14.41;100.00
52137;BME280;69622;49.570;10.986;2023-08-06T02:25:48;97525.75;;;14.44;100.00
52137;BME280;69622;49.570;10.986;2023-08-06T02:28:57;97526.22;;;14.47;100.00
52137;BME280;69622;49.570;10.986;2023-08-06T02:31:59;97516.94;;;14.53;100.00
52137;BME280;69622;49.570;10.986;2023-08-06T02:35:02;97519.25;;;14.56;100.00
52137;BME280;69622;49.570;10.986;2023-08-06T02:38:04;97513.94;;;14.39;100.00
52137;BME280;69622;49.570;10.986;2023-08-06T02:41:05;97517.53;;;14.38;100.00
52137;BME280;69622;49.570;10.986;2023-08-06T02:44:07;97504.28;;;14.40;100.00
52137;BME280;69622;49.570;10.986;2023-08-06T02:47:08;97476.34;;;14.41;100.00
52137;BME280;69622;49.570;10.986;2023-08-06T02:50:10;97477.13;;;14.33;100.00
52137;BME280;69622;49.570;10.986;2023-08-06T02:53:11;97472.91;;;14.40;100.00
52137;BME280;69622;49.570;10.986;2023-08-06T02:56:13;97469.59;;;14.30;100.00
52137;BME280;69622;49.570;10.986;2023-08-06T02:59:14;97465.03;;;14.24;100.00
52137;BME280;69622;49.570;10.986;2023-08-06T03:02:16;97466.94;;;14.14;100.00
52137;BME280;69622;49.570;10.986;2023-08-06T03:05:17;97470.72;;;14.19;100.00
52137;BME280;69622;49.570;10.986;2023-08-06T03:08:18;97469.72;;;14.12;100.00
52137;BME280;69622;49.570;10.986;2023-08-06T03:11:23;97462.56;;;14.22;100.00
52137;BME280;69622;49.570;10.986;2023-08-06T03:14:25;97468.56;;;14.15;100.00
52137;BME280;69622;49.570;10.986;2023-08-06T03:17:26;97454.72;;;14.22;100.00
52137;BME280;69622;49.570;10.986;2023-08-06T03:20:28;97450.47;;;14.21;100.00
52137;BME280;69622;49.570;10.986;2023-08-06T03:23:29;97452.91;;;14.15;100.00
52137;BME280;69622;49.570;10.986;2023-08-06T03:26:31;97451.09;;;14.15;100.00
52137;BME280;69622;49.570;10.986;2023-08-06T03:29:32;97455.34;;;14.16;100.00
52137;BME280;69622;49.570;10.986;2023-08-06T03:32:34;97454.69;;;14.14;100.00
52137;BME280;69622;49.570;10.986;2023-08-06T03:35:35;97461.56;;;14.15;100.00
52137;BME280;69622;49.570;10.986;2023-08-06T03:38:36;97456.31;;;14.07;100.00
52137;BME280;69622;49.570;10.986;2023-08-06T03:41:38;97461.53;;;14.07;100.00
52137;BME280;69622;49.570;10.986;2023-08-06T03:44:39;97453.69;;;14.07;100.00
52137;BME280;69622;49.570;10.986;2023-08-06T03:47:41;97440.78;;;14.05;100.00
52137;BME280;69622;49.570;10.986;2023-08-06T03:50:42;97435.03;;;14.02;100.00
52137;BME280;69622;49.570;10.986;2023-08-06T03:53:44;97436.34;;;13.98;100.00
52137;BME280;69622;49.570;10.986;2023-08-06T03:56:45;97438.03;;;14.15;100.00
52137;BME280;69622;49.570;10.986;2023-08-06T03:59:47;97445.66;;;14.00;100.00
52137;BME280;69622;49.570;10.986;2023-08-06T04:02:55;97445.47;;;13.94;100.00
52137;BME280;69622;49.570;10.986;2023-08-06T04:05:57;97439.06;;;13.88;100.00
52137;BME280;69622;49.570;10.986;2023-08-06T04:08:58;97444.13;;;13.82;100.00
52137;BME280;69622;49.570;10.986;2023-08-06T04:12:00;97447.16;;;13.69;100.00
52137;BME280;69622;49.570;10.986;2023-08-06T04:15:03;97442.41;;;13.64;100.00
52137;BME280;69622;49.570;10.986;2023-08-06T04:18:05;97433.59;;;13.65;100.00
52137;BME280;69622;49.570;10.986;2023-08-06T04:21:06;97444.56;;;13.69;100.00
52137;BME280;69622;49.570;10.986;2023-08-06T04:24:08;97448.47;;;13.65;100.00
52137;BME280;69622;49.570;10.986;2023-08-06T04:27:10;97438.72;;;13.75;100.00
52137;BME280;69622;49.570;10.986;2023-08-06T04:30:12;97441.00;;;13.78;100.00
52137;BME280;69622;49.570;10.986;2023-08-06T04:33:13;97432.84;;;13.81;100.00
52137;BME280;69622;49.570;10.986;2023-08-06T04:36:15;97434.31;;;13.84;100.00
52137;BME280;69622;49.570;10.986;2023-08-06T04:39:17;97428.78;;;13.78;100.00
52137;BME280;69622;49.570;10.986;2023-08-06T04:42:18;97435.91;;;13.68;100.00
52137;BME280;69622;49.570;10.986;2023-08-06T04:45:20;97436.41;;;13.72;100.00
52137;BME280;69622;49.570;10.986;2023-08-06T04:48:22;97428.44;;;13.73;100.00
52137;BME280;69622;49.570;10.986;2023-08-06T04:51:23;97441.13;;;13.68;100.00
52137;BME280;69622;49.570;10.986;2023-08-06T04:54:25;97439.69;;;13.74;100.00
52137;BME280;69622;49.570;10.986;2023-08-06T04:57:26;97441.34;;;13.75;100.00
52137;BME280;69622;49.570;10.986;2023-08-06T05:00:28;97441.00;;;13.78;100.00
52137;BME280;69622;49.570;10.986;2023-08-06T05:03:29;97435.47;;;13.81;100.00
52137;BME280;69622;49.570;10.986;2023-08-06T05:06:31;97432.84;;;13.81;100.00
52137;BME280;69622;49.570;10.986;2023-08-06T05:09:32;97429.09;;;13.84;100.00
52137;BME280;69622;49.570;10.986;2023-08-06T05:12:34;97432.22;;;13.87;100.00
52137;BME280;69622;49.570;10.986;2023-08-06T05:15:35;97423.41;;;13.88;100.00
52137;BME280;69622;49.570;10.986;2023-08-06T05:18:37;97434.81;;;13.87;100.00
52137;BME280;69622;49.570;10.986;2023-08-06T05:21:39;97427.03;;;14.03;100.00
52137;BME280;69622;49.570;10.986;2023-08-06T05:24:40;97433.91;;;13.96;100.00
52137;BME280;69622;49.570;10.986;2023-08-06T05:27:42;97427.19;;;14.02;100.00
52137;BME280;69622;49.570;10.986;2023-08-06T05:30:43;97424.63;;;14.18;100.00
52137;BME280;69622;49.570;10.986;2023-08-06T05:33:44;97434.75;;;14.05;100.00
52137;BME280;69622;49.570;10.986;2023-08-06T05:36:46;97433.25;;;13.94;100.00
52137;BME280;69622;49.570;10.986;2023-08-06T05:39:47;97420.88;;;14.04;100.00
52137;BME280;69622;49.570;10.986;2023-08-06T05:42:49;97418.28;;;14.29;100.00
52137;BME280;69622;49.570;10.986;2023-08-06T05:45:50;97421.53;;;14.15;100.00
52137;BME280;69622;49.570;10.986;2023-08-06T05:48:52;97425.44;;;14.11;100.00
52137;BME280;69622;49.570;10.986;2023-08-06T05:51:53;97420.53;;;14.07;100.00
52137;BME280;69622;49.570;10.986;2023-08-06T05:54:55;97421.69;;;14.05;100.00
52137;BME280;69622;49.570;10.986;2023-08-06T05:57:57;97415.94;;;14.01;100.00
52137;BME280;69622;49.570;10.986;2023-08-06T06:00:58;97417.22;;;13.97;100.00
52137;BME280;69622;49.570;10.986;2023-08-06T06:04:00;97415.97;;;14.18;100.00
52137;BME280;69622;49.570;10.986;2023-08-06T06:07:02;97418.91;;;14.06;100.00
52137;BME280;69622;49.570;10.986;2023-08-06T06:10:03;97417.75;;;14.09;100.00
52137;BME280;69622;49.570;10.986;2023-08-06T06:13:05;97422.22;;;14.33;100.00
52137;BME280;69622;49.570;10.986;2023-08-06T06:16:10;97413.56;;;14.41;100.00
52137;BME280;69622;49.570;10.986;2023-08-06T06:19:12;97406.53;;;14.41;100.00
52137;BME280;69622;49.570;10.986;2023-08-06T06:22:14;97412.44;;;14.51;100.00
52137;BME280;69622;49.570;10.986;2023-08-06T06:25:15;97411.81;;;14.65;100.00
52137;BME280;69622;49.570;10.986;2023-08-06T06:28:18;97407.09;;;14.69;100.00
52137;BME280;69622;49.570;10.986;2023-08-06T06:31:19;97413.44;;;14.66;100.00
52137;BME280;69622;49.570;10.986;2023-08-06T06:34:21;97410.50;;;14.78;100.00
52137;BME280;69622;49.570;10.986;2023-08-06T06:37:23;97412.63;;;14.82;100.00
52137;BME280;69622;49.570;10.986;2023-08-06T06:40:24;97405.44;;;14.52;100.00
52137;BME280;69622;49.570;10.986;2023-08-06T06:43:26;97398.09;;;14.72;100.00
52137;BME280;69622;49.570;10.986;2023-08-06T06:46:27;97405.13;;;14.63;100.00
52137;BME280;69622;49.570;10.986;2023-08-06T06:49:29;97414.78;;;14.71;100.00
52137;BME280;69622;49.570;10.986;2023-08-06T06:52:30;97418.34;;;14.61;100.00
52137;BME280;69622;49.570;10.986;2023-08-06T06:55:32;97415.09;;;14.67;100.00
52137;BME280;69622;49.570;10.986;2023-08-06T06:58:33;97408.41;;;14.73;100.00
52137;BME280;69622;49.570;10.986;2023-08-06T07:01:35;97405.59;;;14.58;100.00
52137;BME280;69622;49.570;10.986;2023-08-06T07:04:37;97411.50;;;14.60;100.00
52137;BME280;69622;49.570;10.986;2023-08-06T07:07:38;97402.19;;;14.58;100.00
52137;BME280;69622;49.570;10.986;2023-08-06T07:10:43;97398.72;;;14.49;100.00
52137;BME280;69622;49.570;10.986;2023-08-06T07:13:44;97401.34;;;14.65;100.00
52137;BME280;69622;49.570;10.986;2023-08-06T07:16:46;97397.75;;;14.75;100.00
52137;BME280;69622;49.570;10.986;2023-08-06T07:19:47;97398.72;;;14.90;100.00
52137;BME280;69622;49.570;10.986;2023-08-06T07:22:49;97398.72;;;14.98;100.00
52137;BME280;69622;49.570;10.986;2023-08-06T07:25:51;97399.53;;;14.90;100.00
52137;BME280;69622;49.570;10.986;2023-08-06T07:28:53;97399.72;;;14.89;100.00
52137;BME280;69622;49.570;10.986;2023-08-06T07:31:54;97396.44;;;15.03;100.00
52137;BME280;69622;49.570;10.986;2023-08-06T07:34:57;97391.53;;;14.92;100.00
52137;BME280;69622;49.570;10.986;2023-08-06T07:38:02;97397.56;;;15.17;100.00
52137;BME280;69622;49.570;10.986;2023-08-06T07:41:03;97389.31;;;15.28;100.00
52137;BME280;69622;49.570;10.986;2023-08-06T07:44:05;97390.31;;;15.35;100.00
52137;BME280;69622;49.570;10.986;2023-08-06T07:47:07;97385.09;;;15.19;100.00
52137;BME280;69622;49.570;10.986;2023-08-06T07:50:09;97385.25;;;15.25;100.00
52137;BME280;69622;49.570;10.986;2023-08-06T07:53:10;97375.28;;;15.21;100.00
52137;BME280;69622;49.570;10.986;2023-08-06T07:56:12;97376.00;;;15.46;100.00
52137;BME280;69622;49.570;10.986;2023-08-06T07:59:13;97381.59;;;15.43;100.00
52137;BME280;69622;49.570;10.986;2023-08-06T08:02:15;97370.09;;;15.60;100.00
52137;BME280;69622;49.570;10.986;2023-08-06T08:05:17;97367.56;;;15.83;100.00
52137;BME280;69622;49.570;10.986;2023-08-06T08:08:18;97364.56;;;15.86;100.00
52137;BME280;69622;49.570;10.986;2023-08-06T08:11:20;97365.00;;;15.58;100.00
52137;BME280;69622;49.570;10.986;2023-08-06T08:14:22;97358.94;;;15.66;100.00
52137;BME280;69622;49.570;10.986;2023-08-06T08:17:23;97359.28;;;15.55;100.00
52137;BME280;69622;49.570;10.986;2023-08-06T08:20:25;97368.00;;;15.47;100.00
52137;BME280;69622;49.570;10.986;2023-08-06T08:23:27;97363.88;;;15.53;100.00
52137;BME280;69622;49.570;10.986;2023-08-06T08:26:29;97367.66;;;15.50;100.00
52137;BME280;69622;49.570;10.986;2023-08-06T08:29:31;97368.47;;;15.59;100.00
52137;BME280;69622;49.570;10.986;2023-08-06T08:32:32;97369.81;;;15.39;100.00
52137;BME280;69622;49.570;10.986;2023-08-06T08:35:34;97372.25;;;15.48;100.00
52137;BME280;69622;49.570;10.986;2023-08-06T08:38:37;97365.34;;;15.64;100.00
52137;BME280;69622;49.570;10.986;2023-08-06T08:41:38;97369.75;;;15.55;100.00
52137;BME280;69622;49.570;10.986;2023-08-06T08:44:41;97382.06;;;15.63;100.00
52137;BME280;69622;49.570;10.986;2023-08-06T08:47:44;97379.09;;;15.57;100.00
52137;BME280;69622;49.570;10.986;2023-08-06T08:50:47;97384.16;;;15.67;100.00
52137;BME280;69622;49.570;10.986;2023-08-06T08:53:52;97381.69;;;15.57;100.00
52137;BME280;69622;49.570;10.986;2023-08-06T08:56:54;97379.13;;;15.49;100.00
52137;BME280;69622;49.570;10.986;2023-08-06T08:59:56;97369.38;;;15.74;100.00
52137;BME280;69622;49.570;10.986;2023-08-06T09:02:58;97370.84;;;15.77;100.00
52137;BME280;69622;49.570;10.986;2023-08-06T09:06:02;97368.91;;;16.02;100.00
52137;BME280;69622;49.570;10.986;2023-08-06T09:09:12;97368.22;;;16.08;100.00
52137;BME280;69622;49.570;10.986;2023-08-06T09:12:17;97367.31;;;15.93;100.00
52137;BME280;69622;49.570;10.986;2023-08-06T09:15:19;97369.03;;;15.77;100.00
52137;BME280;69622;49.570;10.986;2023-08-06T09:18:29;97362.41;;;16.21;100.00
52137;BME280;69622;49.570;10.986;2023-08-06T09:21:31;97365.03;;;16.21;100.00
52137;BME280;69622;49.570;10.986;2023-08-06T09:24:32;97364.69;;;15.93;100.00
52137;BME280;69622;49.570;10.986;2023-08-06T09:27:34;97363.97;;;16.07;100.00
52137;BME280;69622;49.570;10.986;2023-08-06T09:30:36;97361.22;;;15.69;100.00
52137;BME280;69622;49.570;10.986;2023-08-06T09:33:38;97371.25;;;15.66;100.00
52137;BME280;69622;49.570;10.986;2023-08-06T09:36:46;97357.00;;;15.91;100.00
52137;BME280;69622;49.570;10.986;2023-08-06T09:39:48;97352.97;;;16.34;100.00
52137;BME280;69622;49.570;10.986;2023-08-06T09:42:49;97346.72;;;16.12;100.00
52137;BME280;69622;49.570;10.986;2023-08-06T09:45:52;97348.06;;;16.31;100.00
52137;BME280;69622;49.570;10.986;2023-08-06T09:48:54;97350.16;;;16.36;100.00
52137;BME280;69622;49.570;10.986;2023-08-06T09:51:57;97355.94;;;16.31;100.00
52137;BME280;69622;49.570;10.986;2023-08-06T09:55:00;97357.47;;;16.26;100.00
52137;BME280;69622;49.570;10.986;2023-08-06T09:58:03;97347.03;;;16.17;100.00
52137;BME280;69622;49.570;10.986;2023-08-06T10:01:05;97349.47;;;16.42;100.00
52137;BME280;69622;49.570;10.986;2023-08-06T10:04:07;97339.34;;;16.54;100.00
52137;BME280;69622;49.570;10.986;2023-08-06T10:07:24;97344.34;;;16.48;100.00
52137;BME280;69622;49.570;10.986;2023-08-06T10:10:27;97343.16;;;16.74;100.00
52137;BME280;69622;49.570;10.986;2023-08-06T10:13:30;97339.75;;;17.03;100.00
52137;BME280;69622;49.570;10.986;2023-08-06T10:16:32;97336.41;;;16.94;100.00
52137;BME280;69622;49.570;10.986;2023-08-06T10:19:34;97343.00;;;17.20;100.00
52137;BME280;69622;49.570;10.986;2023-08-06T10:22:36;97337.66;;;16.98;100.00
52137;BME280;69622;49.570;10.986;2023-08-06T10:25:43;97335.06;;;16.61;100.00
52137;BME280;69622;49.570;10.986;2023-08-06T10:28:44;97335.41;;;16.58;100.00
52137;BME280;69622;49.570;10.986;2023-08-06T10:31:58;97333.97;;;17.08;100.00
52137;BME280;69622;49.570;10.986;2023-08-06T10:35:01;97330.06;;;17.03;100.00
52137;BME280;69622;49.570;10.986;2023-08-06T10:38:11;97322.28;;;16.95;100.00
52137;BME280;69622;49.570;10.986;2023-08-06T10:41:30;97325.97;;;16.86;100.00
52137;BME280;69622;49.570;10.986;2023-08-06T10:44:31;97329.94;;;16.67;100.00
52137;BME280;69622;49.570;10.986;2023-08-06T10:47:38;97317.47;;;16.84;100.00
52137;BME280;69622;49.570;10.986;2023-08-06T10:50:44;97306.06;;;16.77;100.00
52137;BME280;69622;49.570;10.986;2023-08-06T10:53:48;97311.94;;;16.56;100.00
52137;BME280;69622;49.570;10.986;2023-08-06T10:56:49;97316.00;;;16.44;100.00
52137;BME280;69622;49.570;10.986;2023-08-06T10:59:51;97319.44;;;16.44;100.00
52137;BME280;69622;49.570;10.986;2023-08-06T11:03:08;97316.38;;;16.56;100.00
52137;BME280;69622;49.570;10.986;2023-08-06T11:06:10;97325.34;;;16.99;100.00
52137;BME280;69622;49.570;10.986;2023-08-06T11:09:12;97295.25;;;17.46;100.00
52137;BME280;69622;49.570;10.986;2023-08-06T11:12:18;97304.34;;;17.28;100.00
52137;BME280;69622;49.570;10.986;2023-08-06T11:15:22;97299.31;;;17.48;100.00
52137;BME280;69622;49.570;10.986;2023-08-06T11:18:25;97306.72;;;17.09;100.00
52137;BME280;69622;49.570;10.986;2023-08-06T11:21:26;97303.53;;;17.28;100.00
52137;BME280;69622;49.570;10.986;2023-08-06T11:24:28;97294.09;;;17.04;100.00
52137;BME280;69622;49.570;10.986;2023-08-06T11:27:29;97284.78;;;17.16;100.00
52137;BME280;69622;49.570;10.986;2023-08-06T11:30:32;97270.13;;;17.22;100.00
52137;BME280;69622;49.570;10.986;2023-08-06T11:33:33;97278.78;;;17.52;100.00
52137;BME280;69622;49.570;10.986;2023-08-06T11:36:40;97291.78;;;17.09;100.00
52137;BME280;69622;49.570;10.986;2023-08-06T11:39:46;97292.59;;;17.10;100.00
52137;BME280;69622;49.570;10.986;2023-08-06T11:42:50;97294.09;;;17.04;100.00
52137;BME280;69622;49.570;10.986;2023-08-06T11:45:52;97274.53;;;17.36;100.00
52137;BME280;69622;49.570;10.986;2023-08-06T11:48:57;97282.16;;;17.31;100.00
52137;BME280;69622;49.570;10.986;2023-08-06T11:51:59;97271.88;;;17.51;100.00
52137;BME280;69622;49.570;10.986;2023-08-06T11:55:04;97265.88;;;17.57;100.00
52137;BME280;69622;49.570;10.986;2023-08-06T11:58:11;97264.31;;;17.26;100.00
52137;BME280;69622;49.570;10.986;2023-08-06T12:01:14;97264.50;;;17.25;100.00
52137;BME280;69622;49.570;10.986;2023-08-06T12:04:15;97271.03;;;16.99;100.00
52137;BME280;69622;49.570;10.986;2023-08-06T12:07:17;97264.13;;;17.13;100.00
52137;BME280;69622;49.570;10.986;2023-08-06T12:10:19;97274.19;;;17.10;100.00
52137;BME280;69622;49.570;10.986;2023-08-06T12:13:21;97264.56;;;17.31;100.00
52137;BME280;69622;49.570;10.986;2023-08-06T12:16:23;97267.75;;;17.12;100.00
52137;BME280;69622;49.570;10.986;2023-08-06T12:19:25;97272.53;;;17.53;100.00
52137;BME280;69622;49.570;10.986;2023-08-06T12:22:27;97275.19;;;17.23;100.00
52137;BME280;69622;49.570;10.986;2023-08-06T12:25:28;97281.72;;;16.98;100.00
52137;BME280;69622;49.570;10.986;2023-08-06T12:28:30;97312.25;;;16.61;100.00
52137;BME280;69622;49.570;10.986;2023-08-06T12:31:32;97296.09;;;16.12;100.00
52137;BME280;69622;49.570;10.986;2023-08-06T12:34:33;97290.41;;;15.77;100.00
52137;BME280;69622;49.570;10.986;2023-08-06T12:37:52;97295.75;;;16.75;100.00
52137;BME280;69622;49.570;10.986;2023-08-06T12:40:55;97286.03;;;17.35;100.00
52137;BME280;69622;49.570;10.986;2023-08-06T12:43:57;97278.84;;;17.73;100.00
52137;BME280;69622;49.570;10.986;2023-08-06T12:46:59;97270.59;;;18.19;100.00
52137;BME280;69622;49.570;10.986;2023-08-06T12:50:00;97271.94;;;18.36;100.00
52137;BME280;69622;49.570;10.986;2023-08-06T12:53:01;97265.81;;;18.08;100.00
52137;BME280;69622;49.570;10.986;2023-08-06T12:56:05;97267.78;;;17.48;100.00
52137;BME280;69622;49.570;10.986;2023-08-06T12:59:07;97275.38;;;16.92;100.00
52137;BME280;69622;49.570;10.986;2023-08-06T13:02:08;97266.31;;;16.80;100.00
52137;BME280;69622;49.570;10.986;2023-08-06T13:05:10;97281.53;;;16.47;100.00
52137;BME280;69622;49.570;10.986;2023-08-06T13:08:11;97274.22;;;16.20;100.00
52137;BME280;69622;49.570;10.986;2023-08-06T13:11:13;97289.47;;;16.39;100.00
52137;BME280;69622;49.570;10.986;2023-08-06T13:14:14;97292.66;;;16.49;100.00
52137;BME280;69622;49.570;10.986;2023-08-06T13:17:15;97302.25;;;16.57;100.00
52137;BME280;69622;49.570;10.986;2023-08-06T13:20:17;97312.59;;;16.58;100.00
52137;BME280;69622;49.570;10.986;2023-08-06T13:23:21;97310.75;;;16.67;100.00
52137;BME280;69622;49.570;10.986;2023-08-06T13:26:23;97313.75;;;16.56;100.00
52137;BME280;69622;49.570;10.986;2023-08-06T13:29:25;97312.44;;;16.60;100.00
52137;BME280;69622;49.570;10.986;2023-08-06T13:32:26;97306.91;;;16.09;100.00
52137;BME280;69622;49.570;10.986;2023-08-06T13:35:28;97320.16;;;16.15;100.00
52137;BME280;69622;49.570;10.986;2023-08-06T13:38:29;97304.13;;;16.33;100.00
52137;BME280;69622;49.570;10.986;2023-08-06T13:41:31;97315.81;;;16.23;100.00
52137;BME280;69622;49.570;10.986;2023-08-06T13:44:32;97324.88;;;16.20;100.00
52137;BME280;69622;49.570;10.986;2023-08-06T13:47:37;97324.91;;;16.35;100.00
52137;BME280;69622;49.570;10.986;2023-08-06T13:50:38;97324.34;;;16.25;100.00
52137;BME280;69622;49.570;10.986;2023-08-06T13:53:41;97327.13;;;16.00;100.00
52137;BME280;69622;49.570;10.986;2023-08-06T13:56:43;97332.03;;;15.80;100.00
52137;BME280;69622;49.570;10.986;2023-08-06T13:59:44;97340.69;;;15.81;100.00
52137;BME280;69622;49.570;10.986;2023-08-06T14:02:46;97346.41;;;15.84;100.00
52137;BME280;69622;49.570;10.986;2023-08-06T14:05:47;97347.75;;;15.80;100.00
52137;BME280;69622;49.570;10.986;2023-08-06T14:08:50;97348.25;;;15.76;100.00
52137;BME280;69622;49.570;10.986;2023-08-06T14:11:51;97349.47;;;15.96;100.00
52137;BME280;69622;49.570;10.986;2023-08-06T14:14:53;97352.91;;;15.97;100.00
52137;BME280;69622;49.570;10.986;2023-08-06T14:17:54;97359.47;;;15.53;100.00
52137;BME280;69622;49.570;10.986;2023-08-06T14:20:56;97364.22;;;15.50;100.00
52137;BME280;69622;49.570;10.986;2023-08-06T14:23:57;97362.66;;;15.24;100.00
52137;BME280;69622;49.570;10.986;2023-08-06T14:26:59;97369.41;;;15.11;100.00
52137;BME280;69622;49.570;10.986;2023-08-06T14:30:00;97371.06;;;15.04;100.00
52137;BME280;69622;49.570;10.986;2023-08-06T14:33:04;97370.09;;;15.05;100.00
52137;BME280;69622;49.570;10.986;2023-08-06T14:36:26;97391.22;;;14.79;100.00
52137;BME280;69622;49.570;10.986;2023-08-06T14:39:27;97381.56;;;14.71;100.00
52137;BME280;69622;49.570;10.986;2023-08-06T14:42:29;97397.09;;;14.81;100.00
52137;BME280;69622;49.570;10.986;2023-08-06T14:45:30;97395.47;;;14.63;100.00
52137;BME280;69622;49.570;10.986;2023-08-06T14:48:32;97407.91;;;14.86;100.00
52137;BME280;69622;49.570;10.986;2023-08-06T14:51:34;97410.53;;;14.70;100.00
52137;BME280;69622;49.570;10.986;2023-08-06T14:54:36;97403.97;;;14.90;100.00
52137;BME280;69622;49.570;10.986;2023-08-06T14:57:37;97398.41;;;14.85;100.00
52137;BME280;69622;49.570;10.986;2023-08-06T15:00:39;97417.84;;;14.82;100.00
52137;BME280;69622;49.570;10.986;2023-08-06T15:03:40;97423.22;;;15.13;100.00
52137;BME280;69622;49.570;10.986;2023-08-06T15:06:42;97432.25;;;14.78;100.00
52137;BME280;69622;49.570;10.986;2023-08-06T15:09:43;97444.53;;;14.86;100.00
52137;BME280;69622;49.570;10.986;2023-08-06T15:13:05;97450.72;;;14.60;100.00
52137;BME280;69622;49.570;10.986;2023-08-06T15:16:07;97440.28;;;14.77;100.00
52137;BME280;69622;49.570;10.986;2023-08-06T15:19:09;97454.00;;;14.62;100.00
52137;BME280;69622;49.570;10.986;2023-08-06T15:22:10;97457.94;;;14.75;100.00
52137;BME280;69622;49.570;10.986;2023-08-06T15:25:13;97457.25;;;14.48;100.00
52137;BME280;69622;49.570;10.986;2023-08-06T15:28:15;97461.38;;;14.59;100.00
52137;BME280;69622;49.570;10.986;2023-08-06T15:31:20;97462.34;;;14.66;100.00
52137;BME280;69622;49.570;10.986;2023-08-06T15:34:22;97463.16;;;14.58;100.00
52137;BME280;69622;49.570;10.986;2023-08-06T15:37:24;97479.84;;;14.74;100.00
52137;BME280;69622;49.570;10.986;2023-08-06T15:40:25;97483.28;;;14.58;100.00
52137;BME280;69622;49.570;10.986;2023-08-06T15:43:28;97501.13;;;14.71;100.00